sensor_id;sensor_type;location;lat;lon;timestamp;P1;durP1;ratioP1;P2;durP2;ratioP2
12407;SDS011;6268;48.188;17.134;2022-12-07T00:01:45;7.13;;;6.63;;
12407;SDS011;6268;48.188;17.134;2022-12-07T00:04:16;7.20;;;6.60;;
12407;SDS011;6268;48.188;17.134;2022-12-07T00:06:47;7.38;;;6.78;;
12407;SDS011;6268;48.188;17.134;2022-12-07T00:09:19;7.05;;;6.35;;
12407;SDS011;6268;48.188;17.134;2022-12-07T00:11:49;7.07;;;6.47;;
12407;SDS011;6268;48.188;17.134;2022-12-07T00:14:19;7.63;;;6.90;;
12407;SDS011;6268;48.188;17.134;2022-12-07T00:16:49;7.65;;;7.10;;
12407;SDS011;6268;48.188;17.134;2022-12-07T00:19:20;6.90;;;6.30;;
12407;SDS011;6268;48.188;17.134;2022-12-07T00:21:49;7.80;;;7.20;;
12407;SDS011;6268;48.188;17.134;2022-12-07T00:24:17;7.28;;;6.57;;
12407;SDS011;6268;48.188;17.134;2022-12-07T00:26:46;7.45;;;6.85;;
12407;SDS011;6268;48.188;17.134;2022-12-07T00:29:15;7.70;;;7.00;;
12407;SDS011;6268;48.188;17.134;2022-12-07T00:31:46;8.10;;;7.30;;
12407;SDS011;6268;48.188;17.134;2022-12-07T00:34:16;7.30;;;6.73;;
12407;SDS011;6268;48.188;17.134;2022-12-07T00:36:49;8.23;;;7.53;;
12407;SDS011;6268;48.188;17.134;2022-12-07T00:39:18;7.77;;;7.17;;
12407;SDS011;6268;48.188;17.134;2022-12-07T00:41:47;8.43;;;7.73;;
12407;SDS011;6268;48.188;17.134;2022-12-07T00:44:15;9.00;;;8.25;;
12407;SDS011;6268;48.188;17.134;2022-12-07T00:46:44;7.97;;;7.28;;
12407;SDS011;6268;48.188;17.134;2022-12-07T00:49:13;8.40;;;7.70;;
12407;SDS011;6268;48.188;17.134;2022-12-07T00:51:41;8.35;;;7.63;;
12407;SDS011;6268;48.188;17.134;2022-12-07T00:54:11;7.80;;;7.20;;
12407;SDS011;6268;48.188;17.134;2022-12-07T00:56:40;7.95;;;7.35;;
12407;SDS011;6268;48.188;17.134;2022-12-07T00:59:10;7.73;;;7.17;;
12407;SDS011;6268;48.188;17.134;2022-12-07T01:01:41;8.45;;;7.65;;
12407;SDS011;6268;48.188;17.134;2022-12-07T01:04:10;8.73;;;7.97;;
12407;SDS011;6268;48.188;17.134;2022-12-07T01:06:39;8.60;;;7.82;;
12407;SDS011;6268;48.188;17.134;2022-12-07T01:09:08;8.07;;;7.40;;
12407;SDS011;6268;48.188;17.134;2022-12-07T01:11:38;9.15;;;8.35;;
12407;SDS011;6268;48.188;17.134;2022-12-07T01:14:06;8.90;;;8.00;;
12407;SDS011;6268;48.188;17.134;2022-12-07T01:16:36;9.93;;;9.05;;
12407;SDS011;6268;48.188;17.134;2022-12-07T01:19:06;9.40;;;8.50;;
12407;SDS011;6268;48.188;17.134;2022-12-07T01:21:35;9.95;;;9.05;;
12407;SDS011;6268;48.188;17.134;2022-12-07T01:24:06;9.30;;;8.50;;
12407;SDS011;6268;48.188;17.134;2022-12-07T01:26:39;10.27;;;9.27;;
12407;SDS011;6268;48.188;17.134;2022-12-07T01:29:08;10.23;;;9.30;;
12407;SDS011;6268;48.188;17.134;2022-12-07T01:31:37;10.63;;;9.30;;
12407;SDS011;6268;48.188;17.134;2022-12-07T01:34:05;10.97;;;10.07;;
12407;SDS011;6268;48.188;17.134;2022-12-07T01:36:35;11.18;;;10.07;;
12407;SDS011;6268;48.188;17.134;2022-12-07T01:39:04;10.48;;;9.57;;
12407;SDS011;6268;48.188;17.134;2022-12-07T01:41:37;12.25;;;11.05;;
12407;SDS011;6268;48.188;17.134;2022-12-07T01:44:11;12.13;;;10.82;;
12407;SDS011;6268;48.188;17.134;2022-12-07T01:46:44;11.13;;;10.13;;
12407;SDS011;6268;48.188;17.134;2022-12-07T01:49:26;12.07;;;10.88;;
12407;SDS011;6268;48.188;17.134;2022-12-07T01:52:03;12.30;;;11.20;;
12407;SDS011;6268;48.188;17.134;2022-12-07T01:54:43;12.10;;;11.00;;
12407;SDS011;6268;48.188;17.134;2022-12-07T01:57:16;12.27;;;11.07;;
12407;SDS011;6268;48.188;17.134;2022-12-07T01:59:47;12.85;;;11.68;;
12407;SDS011;6268;48.188;17.134;2022-12-07T02:02:19;12.80;;;11.50;;
12407;SDS011;6268;48.188;17.134;2022-12-07T02:04:53;12.70;;;11.50;;
12407;SDS011;6268;48.188;17.134;2022-12-07T02:07:24;12.80;;;11.57;;
12407;SDS011;6268;48.188;17.134;2022-12-07T02:09:55;12.60;;;11.40;;
12407;SDS011;6268;48.188;17.134;2022-12-07T02:12:25;12.52;;;11.43;;
12407;SDS011;6268;48.188;17.134;2022-12-07T02:14:54;12.67;;;11.37;;
12407;SDS011;6268;48.188;17.134;2022-12-07T02:17:24;13.00;;;11.77;;
12407;SDS011;6268;48.188;17.134;2022-12-07T02:20:13;13.63;;;12.15;;
12407;SDS011;6268;48.188;17.134;2022-12-07T02:26:19;13.63;;;12.33;;
12407;SDS011;6268;48.188;17.134;2022-12-07T02:29:23;14.15;;;12.77;;
12407;SDS011;6268;48.188;17.134;2022-12-07T02:32:01;14.17;;;12.77;;
12407;SDS011;6268;48.188;17.134;2022-12-07T02:34:38;15.25;;;13.75;;
12407;SDS011;6268;48.188;17.134;2022-12-07T02:37:21;14.90;;;13.50;;
12407;SDS011;6268;48.188;17.134;2022-12-07T02:40:04;16.30;;;14.77;;
12407;SDS011;6268;48.188;17.134;2022-12-07T02:42:40;15.37;;;13.83;;
12407;SDS011;6268;48.188;17.134;2022-12-07T02:45:17;15.70;;;14.10;;
12407;SDS011;6268;48.188;17.134;2022-12-07T02:47:55;16.83;;;15.13;;
12407;SDS011;6268;48.188;17.134;2022-12-07T02:50:28;15.57;;;14.07;;
12407;SDS011;6268;48.188;17.134;2022-12-07T02:52:57;16.40;;;13.97;;
12407;SDS011;6268;48.188;17.134;2022-12-07T02:55:26;14.60;;;13.27;;
12407;SDS011;6268;48.188;17.134;2022-12-07T02:58:08;16.13;;;14.53;;
12407;SDS011;6268;48.188;17.134;2022-12-07T03:00:55;16.87;;;15.17;;
12407;SDS011;6268;48.188;17.134;2022-12-07T03:03:35;18.63;;;16.63;;
12407;SDS011;6268;48.188;17.134;2022-12-07T03:06:15;17.25;;;15.65;;
12407;SDS011;6268;48.188;17.134;2022-12-07T03:08:56;18.07;;;16.37;;
12407;SDS011;6268;48.188;17.134;2022-12-07T03:11:38;17.33;;;15.63;;
12407;SDS011;6268;48.188;17.134;2022-12-07T03:14:17;17.87;;;16.10;;
12407;SDS011;6268;48.188;17.134;2022-12-07T03:16:55;18.77;;;16.77;;
12407;SDS011;6268;48.188;17.134;2022-12-07T03:19:29;19.43;;;17.43;;
12407;SDS011;6268;48.188;17.134;2022-12-07T03:22:02;19.90;;;17.80;;
12407;SDS011;6268;48.188;17.134;2022-12-07T03:24:37;18.80;;;16.93;;
12407;SDS011;6268;48.188;17.134;2022-12-07T03:27:11;19.50;;;17.50;;
12407;SDS011;6268;48.188;17.134;2022-12-07T03:29:45;19.58;;;17.33;;
12407;SDS011;6268;48.188;17.134;2022-12-07T03:32:23;20.10;;;18.08;;
12407;SDS011;6268;48.188;17.134;2022-12-07T03:34:59;20.37;;;18.23;;
12407;SDS011;6268;48.188;17.134;2022-12-07T03:37:36;20.73;;;18.63;;
12407;SDS011;6268;48.188;17.134;2022-12-07T03:40:13;21.33;;;18.77;;
12407;SDS011;6268;48.188;17.134;2022-12-07T03:42:50;21.70;;;19.40;;
12407;SDS011;6268;48.188;17.134;2022-12-07T03:45:23;21.63;;;18.50;;
12407;SDS011;6268;48.188;17.134;2022-12-07T03:48:07;20.83;;;18.63;;
12407;SDS011;6268;48.188;17.134;2022-12-07T03:50:50;20.67;;;18.47;;
12407;SDS011;6268;48.188;17.134;2022-12-07T03:53:28;21.03;;;18.80;;
12407;SDS011;6268;48.188;17.134;2022-12-07T03:56:05;20.30;;;18.15;;
12407;SDS011;6268;48.188;17.134;2022-12-07T03:58:36;21.20;;;19.10;;
12407;SDS011;6268;48.188;17.134;2022-12-07T04:01:06;21.27;;;19.07;;
12407;SDS011;6268;48.188;17.134;2022-12-07T04:03:36;20.53;;;18.43;;
12407;SDS011;6268;48.188;17.134;2022-12-07T04:06:05;22.27;;;19.80;;
12407;SDS011;6268;48.188;17.134;2022-12-07T04:08:34;21.87;;;19.57;;
12407;SDS011;6268;48.188;17.134;2022-12-07T04:11:03;21.20;;;18.97;;
12407;SDS011;6268;48.188;17.134;2022-12-07T04:13:31;21.30;;;19.10;;
12407;SDS011;6268;48.188;17.134;2022-12-07T04:16:20;21.20;;;19.00;;
12407;SDS011;6268;48.188;17.134;2022-12-07T04:18:51;23.40;;;20.90;;
12407;SDS011;6268;48.188;17.134;2022-12-07T04:21:19;22.10;;;19.80;;
12407;SDS011;6268;48.188;17.134;2022-12-07T04:23:48;21.73;;;19.45;;
12407;SDS011;6268;48.188;17.134;2022-12-07T04:26:16;22.47;;;20.17;;
12407;SDS011;6268;48.188;17.134;2022-12-07T04:28:45;21.70;;;19.40;;
12407;SDS011;6268;48.188;17.134;2022-12-07T04:31:14;20.90;;;18.80;;
12407;SDS011;6268;48.188;17.134;2022-12-07T04:33:42;22.70;;;19.92;;
12407;SDS011;6268;48.188;17.134;2022-12-07T04:36:12;20.60;;;18.50;;
12407;SDS011;6268;48.188;17.134;2022-12-07T04:38:41;21.80;;;19.38;;
12407;SDS011;6268;48.188;17.134;2022-12-07T04:41:10;21.85;;;19.55;;
12407;SDS011;6268;48.188;17.134;2022-12-07T04:43:38;21.00;;;18.80;;
12407;SDS011;6268;48.188;17.134;2022-12-07T04:46:07;20.60;;;18.63;;
12407;SDS011;6268;48.188;17.134;2022-12-07T04:48:35;20.37;;;18.27;;
12407;SDS011;6268;48.188;17.134;2022-12-07T04:51:05;23.48;;;20.35;;
12407;SDS011;6268;48.188;17.134;2022-12-07T04:53:35;22.25;;;19.98;;
12407;SDS011;6268;48.188;17.134;2022-12-07T04:56:03;22.63;;;20.30;;
12407;SDS011;6268;48.188;17.134;2022-12-07T04:58:32;33.80;;;27.53;;
12407;SDS011;6268;48.188;17.134;2022-12-07T05:01:01;23.98;;;21.40;;
12407;SDS011;6268;48.188;17.134;2022-12-07T05:03:30;21.83;;;19.42;;
12407;SDS011;6268;48.188;17.134;2022-12-07T05:05:59;21.87;;;19.53;;
12407;SDS011;6268;48.188;17.134;2022-12-07T05:08:27;22.00;;;19.57;;
12407;SDS011;6268;48.188;17.134;2022-12-07T05:10:57;21.63;;;19.33;;
12407;SDS011;6268;48.188;17.134;2022-12-07T05:13:26;22.33;;;20.03;;
12407;SDS011;6268;48.188;17.134;2022-12-07T05:15:55;21.57;;;18.43;;
12407;SDS011;6268;48.188;17.134;2022-12-07T05:18:24;21.75;;;19.48;;
12407;SDS011;6268;48.188;17.134;2022-12-07T05:20:53;20.50;;;18.40;;
12407;SDS011;6268;48.188;17.134;2022-12-07T05:23:22;19.97;;;17.97;;
12407;SDS011;6268;48.188;17.134;2022-12-07T05:25:50;20.70;;;18.60;;
12407;SDS011;6268;48.188;17.134;2022-12-07T05:28:20;20.38;;;18.20;;
12407;SDS011;6268;48.188;17.134;2022-12-07T05:30:49;20.23;;;18.07;;
12407;SDS011;6268;48.188;17.134;2022-12-07T05:33:25;20.87;;;18.73;;
12407;SDS011;6268;48.188;17.134;2022-12-07T05:35:53;20.55;;;18.35;;
12407;SDS011;6268;48.188;17.134;2022-12-07T05:38:22;20.43;;;18.33;;
12407;SDS011;6268;48.188;17.134;2022-12-07T05:40:51;20.63;;;18.30;;
12407;SDS011;6268;48.188;17.134;2022-12-07T05:43:21;22.07;;;19.87;;
12407;SDS011;6268;48.188;17.134;2022-12-07T05:45:50;21.00;;;18.77;;
12407;SDS011;6268;48.188;17.134;2022-12-07T05:48:18;23.83;;;21.33;;
12407;SDS011;6268;48.188;17.134;2022-12-07T05:50:47;21.83;;;19.63;;
12407;SDS011;6268;48.188;17.134;2022-12-07T05:53:17;20.20;;;18.07;;
12407;SDS011;6268;48.188;17.134;2022-12-07T05:55:49;19.80;;;17.70;;
12407;SDS011;6268;48.188;17.134;2022-12-07T05:58:17;20.00;;;17.83;;
12407;SDS011;6268;48.188;17.134;2022-12-07T06:01:05;19.97;;;17.97;;
12407;SDS011;6268;48.188;17.134;2022-12-07T06:03:33;19.25;;;17.25;;
12407;SDS011;6268;48.188;17.134;2022-12-07T06:06:02;19.10;;;17.20;;
12407;SDS011;6268;48.188;17.134;2022-12-07T06:08:31;18.90;;;17.00;;
12407;SDS011;6268;48.188;17.134;2022-12-07T06:11:00;18.93;;;17.03;;
12407;SDS011;6268;48.188;17.134;2022-12-07T06:13:48;18.95;;;17.05;;
12407;SDS011;6268;48.188;17.134;2022-12-07T06:16:18;18.83;;;16.85;;
12407;SDS011;6268;48.188;17.134;2022-12-07T06:18:47;19.05;;;16.88;;
12407;SDS011;6268;48.188;17.134;2022-12-07T06:21:15;19.35;;;17.35;;
12407;SDS011;6268;48.188;17.134;2022-12-07T06:23:44;18.45;;;16.70;;
12407;SDS011;6268;48.188;17.134;2022-12-07T06:26:14;18.30;;;16.40;;
12407;SDS011;6268;48.188;17.134;2022-12-07T06:28:43;18.30;;;16.42;;
12407;SDS011;6268;48.188;17.134;2022-12-07T06:31:12;16.75;;;15.05;;
12407;SDS011;6268;48.188;17.134;2022-12-07T06:33:42;19.38;;;16.98;;
12407;SDS011;6268;48.188;17.134;2022-12-07T06:36:11;17.67;;;15.88;;
12407;SDS011;6268;48.188;17.134;2022-12-07T06:38:40;17.90;;;16.00;;
12407;SDS011;6268;48.188;17.134;2022-12-07T06:41:09;17.30;;;15.38;;
12407;SDS011;6268;48.188;17.134;2022-12-07T06:43:37;16.40;;;14.77;;
12407;SDS011;6268;48.188;17.134;2022-12-07T06:46:06;16.42;;;14.75;;
12407;SDS011;6268;48.188;17.134;2022-12-07T06:48:35;17.05;;;15.32;;
12407;SDS011;6268;48.188;17.134;2022-12-07T06:51:05;16.03;;;14.33;;
12407;SDS011;6268;48.188;17.134;2022-12-07T06:53:34;15.37;;;13.87;;
12407;SDS011;6268;48.188;17.134;2022-12-07T06:56:04;15.80;;;14.20;;
12407;SDS011;6268;48.188;17.134;2022-12-07T06:58:33;14.55;;;13.13;;
12407;SDS011;6268;48.188;17.134;2022-12-07T07:01:02;16.43;;;14.73;;
12407;SDS011;6268;48.188;17.134;2022-12-07T07:03:36;15.02;;;13.43;;
12407;SDS011;6268;48.188;17.134;2022-12-07T07:06:07;15.57;;;13.97;;
12407;SDS011;6268;48.188;17.134;2022-12-07T07:08:37;15.00;;;13.60;;
12407;SDS011;6268;48.188;17.134;2022-12-07T07:11:07;14.65;;;13.30;;
12407;SDS011;6268;48.188;17.134;2022-12-07T07:13:37;14.80;;;13.32;;
12407;SDS011;6268;48.188;17.134;2022-12-07T07:16:07;13.50;;;12.30;;
12407;SDS011;6268;48.188;17.134;2022-12-07T07:18:37;14.07;;;12.68;;
12407;SDS011;6268;48.188;17.134;2022-12-07T07:21:06;14.43;;;13.03;;
12407;SDS011;6268;48.188;17.134;2022-12-07T07:23:35;14.37;;;12.97;;
12407;SDS011;6268;48.188;17.134;2022-12-07T07:26:04;14.02;;;12.63;;
12407;SDS011;6268;48.188;17.134;2022-12-07T07:28:33;13.50;;;12.20;;
12407;SDS011;6268;48.188;17.134;2022-12-07T07:31:01;13.97;;;12.57;;
12407;SDS011;6268;48.188;17.134;2022-12-07T07:33:31;13.40;;;12.10;;
12407;SDS011;6268;48.188;17.134;2022-12-07T07:35:59;13.68;;;12.38;;
12407;SDS011;6268;48.188;17.134;2022-12-07T07:38:30;13.35;;;11.95;;
12407;SDS011;6268;48.188;17.134;2022-12-07T07:40:58;13.02;;;11.70;;
12407;SDS011;6268;48.188;17.134;2022-12-07T07:43:27;14.03;;;12.63;;
12407;SDS011;6268;48.188;17.134;2022-12-07T07:45:56;13.27;;;12.10;;
12407;SDS011;6268;48.188;17.134;2022-12-07T07:48:25;12.83;;;11.57;;
12407;SDS011;6268;48.188;17.134;2022-12-07T07:50:54;12.85;;;11.48;;
12407;SDS011;6268;48.188;17.134;2022-12-07T07:53:23;13.00;;;11.70;;
12407;SDS011;6268;48.188;17.134;2022-12-07T07:55:54;13.53;;;12.20;;
12407;SDS011;6268;48.188;17.134;2022-12-07T07:58:22;12.40;;;11.23;;
12407;SDS011;6268;48.188;17.134;2022-12-07T08:00:51;13.60;;;12.23;;
12407;SDS011;6268;48.188;17.134;2022-12-07T08:03:20;13.45;;;12.23;;
12407;SDS011;6268;48.188;17.134;2022-12-07T08:05:49;12.93;;;11.73;;
12407;SDS011;6268;48.188;17.134;2022-12-07T08:08:18;14.18;;;12.18;;
12407;SDS011;6268;48.188;17.134;2022-12-07T08:10:46;12.97;;;11.67;;
12407;SDS011;6268;48.188;17.134;2022-12-07T08:13:16;13.37;;;11.97;;
12407;SDS011;6268;48.188;17.134;2022-12-07T08:15:46;12.77;;;11.67;;
12407;SDS011;6268;48.188;17.134;2022-12-07T08:18:15;12.43;;;11.23;;
12407;SDS011;6268;48.188;17.134;2022-12-07T08:20:44;13.07;;;11.87;;
12407;SDS011;6268;48.188;17.134;2022-12-07T08:23:13;13.00;;;11.73;;
12407;SDS011;6268;48.188;17.134;2022-12-07T08:25:41;14.73;;;13.23;;
12407;SDS011;6268;48.188;17.134;2022-12-07T08:28:10;13.77;;;12.25;;
12407;SDS011;6268;48.188;17.134;2022-12-07T08:30:40;14.45;;;13.05;;
12407;SDS011;6268;48.188;17.134;2022-12-07T08:33:09;14.60;;;13.23;;
12407;SDS011;6268;48.188;17.134;2022-12-07T08:35:38;13.30;;;12.00;;
12407;SDS011;6268;48.188;17.134;2022-12-07T08:38:07;12.80;;;11.50;;
12407;SDS011;6268;48.188;17.134;2022-12-07T08:40:36;13.47;;;12.30;;
12407;SDS011;6268;48.188;17.134;2022-12-07T08:43:04;13.67;;;12.37;;
12407;SDS011;6268;48.188;17.134;2022-12-07T08:45:33;13.63;;;12.32;;
12407;SDS011;6268;48.188;17.134;2022-12-07T08:48:05;14.02;;;12.73;;
12407;SDS011;6268;48.188;17.134;2022-12-07T08:50:39;14.40;;;12.90;;
12407;SDS011;6268;48.188;17.134;2022-12-07T08:53:15;13.43;;;12.05;;
12407;SDS011;6268;48.188;17.134;2022-12-07T08:55:44;13.73;;;12.43;;
12407;SDS011;6268;48.188;17.134;2022-12-07T08:58:14;13.45;;;12.15;;
12407;SDS011;6268;48.188;17.134;2022-12-07T09:00:43;13.77;;;12.48;;
12407;SDS011;6268;48.188;17.134;2022-12-07T09:03:13;13.25;;;12.05;;
12407;SDS011;6268;48.188;17.134;2022-12-07T09:05:41;12.55;;;11.32;;
12407;SDS011;6268;48.188;17.134;2022-12-07T09:08:10;13.00;;;11.80;;
12407;SDS011;6268;48.188;17.134;2022-12-07T09:10:39;12.98;;;11.77;;
12407;SDS011;6268;48.188;17.134;2022-12-07T09:13:08;12.52;;;11.32;;
12407;SDS011;6268;48.188;17.134;2022-12-07T09:15:36;12.73;;;11.52;;
12407;SDS011;6268;48.188;17.134;2022-12-07T09:18:06;14.68;;;13.27;;
12407;SDS011;6268;48.188;17.134;2022-12-07T09:20:36;16.33;;;14.15;;
12407;SDS011;6268;48.188;17.134;2022-12-07T09:23:05;16.25;;;14.60;;
12407;SDS011;6268;48.188;17.134;2022-12-07T09:25:34;16.30;;;14.60;;
12407;SDS011;6268;48.188;17.134;2022-12-07T09:28:03;16.35;;;13.82;;
12407;SDS011;6268;48.188;17.134;2022-12-07T09:30:32;17.73;;;15.82;;
12407;SDS011;6268;48.188;17.134;2022-12-07T09:33:21;29.08;;;23.30;;
12407;SDS011;6268;48.188;17.134;2022-12-07T09:35:52;16.85;;;14.95;;
12407;SDS011;6268;48.188;17.134;2022-12-07T09:38:21;17.50;;;14.27;;
12407;SDS011;6268;48.188;17.134;2022-12-07T09:40:53;14.55;;;13.20;;
12407;SDS011;6268;48.188;17.134;2022-12-07T09:43:23;12.23;;;10.98;;
12407;SDS011;6268;48.188;17.134;2022-12-07T09:45:54;12.23;;;11.10;;
12407;SDS011;6268;48.188;17.134;2022-12-07T09:48:26;12.30;;;11.10;;
12407;SDS011;6268;48.188;17.134;2022-12-07T09:51:00;10.70;;;9.65;;
12407;SDS011;6268;48.188;17.134;2022-12-07T09:53:30;10.07;;;9.18;;
12407;SDS011;6268;48.188;17.134;2022-12-07T09:56:04;10.60;;;9.50;;
12407;SDS011;6268;48.188;17.134;2022-12-07T09:58:34;9.23;;;8.38;;
12407;SDS011;6268;48.188;17.134;2022-12-07T10:01:05;9.30;;;8.43;;
12407;SDS011;6268;48.188;17.134;2022-12-07T10:03:42;7.65;;;6.95;;
12407;SDS011;6268;48.188;17.134;2022-12-07T10:06:19;8.07;;;7.38;;
12407;SDS011;6268;48.188;17.134;2022-12-07T10:08:48;7.13;;;6.53;;
12407;SDS011;6268;48.188;17.134;2022-12-07T10:11:17;7.07;;;6.45;;
12407;SDS011;6268;48.188;17.134;2022-12-07T10:13:46;6.70;;;6.10;;
12407;SDS011;6268;48.188;17.134;2022-12-07T10:16:32;7.57;;;6.30;;
12407;SDS011;6268;48.188;17.134;2022-12-07T10:19:20;6.50;;;5.90;;
12407;SDS011;6268;48.188;17.134;2022-12-07T10:22:10;7.13;;;6.53;;
12407;SDS011;6268;48.188;17.134;2022-12-07T10:24:43;7.00;;;6.43;;
12407;SDS011;6268;48.188;17.134;2022-12-07T10:27:17;7.35;;;6.75;;
12407;SDS011;6268;48.188;17.134;2022-12-07T10:29:49;6.78;;;6.20;;
12407;SDS011;6268;48.188;17.134;2022-12-07T10:32:28;6.95;;;6.43;;
12407;SDS011;6268;48.188;17.134;2022-12-07T10:35:21;7.10;;;6.50;;
12407;SDS011;6268;48.188;17.134;2022-12-07T10:37:57;7.05;;;6.35;;
12407;SDS011;6268;48.188;17.134;2022-12-07T10:40:28;6.43;;;5.93;;
12407;SDS011;6268;48.188;17.134;2022-12-07T10:43:02;8.20;;;7.50;;
12407;SDS011;6268;48.188;17.134;2022-12-07T10:45:42;8.27;;;7.50;;
12407;SDS011;6268;48.188;17.134;2022-12-07T10:48:53;7.07;;;6.47;;
12407;SDS011;6268;48.188;17.134;2022-12-07T10:51:39;7.10;;;6.47;;
12407;SDS011;6268;48.188;17.134;2022-12-07T10:54:22;6.38;;;5.78;;
12407;SDS011;6268;48.188;17.134;2022-12-07T10:57:07;6.05;;;5.55;;
12407;SDS011;6268;48.188;17.134;2022-12-07T11:00:08;5.50;;;5.10;;
12407;SDS011;6268;48.188;17.134;2022-12-07T11:06:00;5.13;;;4.72;;
12407;SDS011;6268;48.188;17.134;2022-12-07T11:08:49;4.68;;;4.28;;
12407;SDS011;6268;48.188;17.134;2022-12-07T11:11:34;3.88;;;3.67;;
12407;SDS011;6268;48.188;17.134;2022-12-07T11:14:13;5.20;;;4.80;;
12407;SDS011;6268;48.188;17.134;2022-12-07T11:16:56;4.25;;;3.95;;
12407;SDS011;6268;48.188;17.134;2022-12-07T11:19:39;5.50;;;5.10;;
12407;SDS011;6268;48.188;17.134;2022-12-07T11:22:24;5.95;;;5.55;;
12407;SDS011;6268;48.188;17.134;2022-12-07T11:25:10;4.75;;;4.43;;
12407;SDS011;6268;48.188;17.134;2022-12-07T11:28:00;5.13;;;4.72;;
12407;SDS011;6268;48.188;17.134;2022-12-07T11:30:47;4.75;;;4.45;;
12407;SDS011;6268;48.188;17.134;2022-12-07T11:33:29;4.53;;;4.22;;
12407;SDS011;6268;48.188;17.134;2022-12-07T11:36:10;4.88;;;4.53;;
12407;SDS011;6268;48.188;17.134;2022-12-07T11:38:59;4.88;;;4.57;;
12407;SDS011;6268;48.188;17.134;2022-12-07T11:41:35;4.93;;;4.53;;
12407;SDS011;6268;48.188;17.134;2022-12-07T11:44:22;5.05;;;4.70;;
12407;SDS011;6268;48.188;17.134;2022-12-07T11:47:01;5.50;;;5.10;;
12407;SDS011;6268;48.188;17.134;2022-12-07T11:49:39;4.35;;;4.13;;
12407;SDS011;6268;48.188;17.134;2022-12-07T11:52:16;4.95;;;4.55;;
12407;SDS011;6268;48.188;17.134;2022-12-07T11:54:53;4.85;;;4.55;;
12407;SDS011;6268;48.188;17.134;2022-12-07T11:57:24;4.93;;;4.63;;
12407;SDS011;6268;48.188;17.134;2022-12-07T12:00:05;5.50;;;5.10;;
12407;SDS011;6268;48.188;17.134;2022-12-07T12:02:43;5.00;;;4.60;;
12407;SDS011;6268;48.188;17.134;2022-12-07T12:05:22;4.82;;;4.43;;
12407;SDS011;6268;48.188;17.134;2022-12-07T12:07:55;4.53;;;4.32;;
12407;SDS011;6268;48.188;17.134;2022-12-07T12:11:00;6.63;;;6.03;;
12407;SDS011;6268;48.188;17.134;2022-12-07T12:13:57;5.07;;;4.68;;
12407;SDS011;6268;48.188;17.134;2022-12-07T12:17:09;6.45;;;4.30;;
12407;SDS011;6268;48.188;17.134;2022-12-07T12:20:01;4.75;;;4.35;;
12407;SDS011;6268;48.188;17.134;2022-12-07T12:22:45;3.83;;;3.63;;
12407;SDS011;6268;48.188;17.134;2022-12-07T12:25:21;3.92;;;3.72;;
12407;SDS011;6268;48.188;17.134;2022-12-07T12:27:56;4.45;;;4.15;;
12407;SDS011;6268;48.188;17.134;2022-12-07T12:30:30;4.30;;;4.10;;
12407;SDS011;6268;48.188;17.134;2022-12-07T12:33:06;4.35;;;4.05;;
12407;SDS011;6268;48.188;17.134;2022-12-07T12:35:47;4.38;;;4.07;;
12407;SDS011;6268;48.188;17.134;2022-12-07T12:38:49;4.40;;;4.10;;
12407;SDS011;6268;48.188;17.134;2022-12-07T12:41:53;3.92;;;3.72;;
12407;SDS011;6268;48.188;17.134;2022-12-07T12:44:40;4.40;;;4.10;;
12407;SDS011;6268;48.188;17.134;2022-12-07T12:47:42;4.75;;;4.45;;
12407;SDS011;6268;48.188;17.134;2022-12-07T12:50:23;5.70;;;5.20;;
12407;SDS011;6268;48.188;17.134;2022-12-07T12:53:03;4.63;;;4.35;;
12407;SDS011;6268;48.188;17.134;2022-12-07T12:56:10;5.15;;;4.75;;
12407;SDS011;6268;48.188;17.134;2022-12-07T12:59:25;4.80;;;4.50;;
12407;SDS011;6268;48.188;17.134;2022-12-07T13:02:07;4.32;;;4.03;;
12407;SDS011;6268;48.188;17.134;2022-12-07T13:04:50;4.35;;;4.05;;
12407;SDS011;6268;48.188;17.134;2022-12-07T13:10:37;5.22;;;4.75;;
12407;SDS011;6268;48.188;17.134;2022-12-07T13:13:28;4.57;;;4.28;;
12407;SDS011;6268;48.188;17.134;2022-12-07T13:25:27;3.88;;;3.53;;
12407;SDS011;6268;48.188;17.134;2022-12-07T13:28:09;3.08;;;2.88;;
12407;SDS011;6268;48.188;17.134;2022-12-07T13:30:54;3.53;;;3.33;;
12407;SDS011;6268;48.188;17.134;2022-12-07T13:33:37;4.40;;;4.00;;
12407;SDS011;6268;48.188;17.134;2022-12-07T13:36:08;4.20;;;3.95;;
12407;SDS011;6268;48.188;17.134;2022-12-07T13:38:49;3.75;;;3.45;;
12407;SDS011;6268;48.188;17.134;2022-12-07T13:41:23;3.85;;;3.65;;
12407;SDS011;6268;48.188;17.134;2022-12-07T13:43:59;4.25;;;4.05;;
12407;SDS011;6268;48.188;17.134;2022-12-07T13:46:32;4.15;;;3.92;;
12407;SDS011;6268;48.188;17.134;2022-12-07T13:49:16;4.28;;;3.97;;
12407;SDS011;6268;48.188;17.134;2022-12-07T13:51:49;4.40;;;4.10;;
12407;SDS011;6268;48.188;17.134;2022-12-07T13:54:18;4.80;;;4.50;;
12407;SDS011;6268;48.188;17.134;2022-12-07T13:56:51;4.32;;;4.03;;
12407;SDS011;6268;48.188;17.134;2022-12-07T13:59:21;4.38;;;4.18;;
12407;SDS011;6268;48.188;17.134;2022-12-07T14:01:53;4.60;;;4.30;;
12407;SDS011;6268;48.188;17.134;2022-12-07T14:04:29;4.55;;;4.25;;
12407;SDS011;6268;48.188;17.134;2022-12-07T14:09:55;4.88;;;4.43;;
12407;SDS011;6268;48.188;17.134;2022-12-07T14:12:29;5.15;;;4.75;;
12407;SDS011;6268;48.188;17.134;2022-12-07T14:15:00;4.88;;;4.57;;
12407;SDS011;6268;48.188;17.134;2022-12-07T14:17:31;4.78;;;4.38;;
12407;SDS011;6268;48.188;17.134;2022-12-07T14:20:00;4.55;;;4.25;;
12407;SDS011;6268;48.188;17.134;2022-12-07T14:22:32;4.90;;;4.60;;
12407;SDS011;6268;48.188;17.134;2022-12-07T14:27:57;4.72;;;4.28;;
12407;SDS011;6268;48.188;17.134;2022-12-07T14:30:28;4.30;;;4.00;;
12407;SDS011;6268;48.188;17.134;2022-12-07T14:33:00;4.53;;;4.25;;
12407;SDS011;6268;48.188;17.134;2022-12-07T14:35:31;5.18;;;4.78;;
12407;SDS011;6268;48.188;17.134;2022-12-07T14:38:00;4.38;;;3.95;;
12407;SDS011;6268;48.188;17.134;2022-12-07T14:40:29;4.47;;;4.18;;
12407;SDS011;6268;48.188;17.134;2022-12-07T14:43:00;4.45;;;4.15;;
12407;SDS011;6268;48.188;17.134;2022-12-07T14:45:33;4.10;;;3.90;;
12407;SDS011;6268;48.188;17.134;2022-12-07T14:48:02;4.60;;;4.30;;
12407;SDS011;6268;48.188;17.134;2022-12-07T14:50:52;5.63;;;4.82;;
12407;SDS011;6268;48.188;17.134;2022-12-07T14:53:42;6.10;;;4.53;;
12407;SDS011;6268;48.188;17.134;2022-12-07T14:56:22;5.00;;;4.50;;
12407;SDS011;6268;48.188;17.134;2022-12-07T14:58:52;5.20;;;4.03;;
12407;SDS011;6268;48.188;17.134;2022-12-07T15:01:21;5.35;;;4.20;;
12407;SDS011;6268;48.188;17.134;2022-12-07T15:03:50;4.75;;;4.35;;
12407;SDS011;6268;48.188;17.134;2022-12-07T15:06:19;4.80;;;4.50;;
12407;SDS011;6268;48.188;17.134;2022-12-07T15:08:47;5.13;;;4.60;;
12407;SDS011;6268;48.188;17.134;2022-12-07T15:11:16;5.00;;;4.50;;
12407;SDS011;6268;48.188;17.134;2022-12-07T15:13:46;4.68;;;4.28;;
12407;SDS011;6268;48.188;17.134;2022-12-07T15:16:33;8.50;;;6.38;;
12407;SDS011;6268;48.188;17.134;2022-12-07T15:19:23;5.30;;;4.90;;
12407;SDS011;6268;48.188;17.134;2022-12-07T15:21:55;5.32;;;4.93;;
12407;SDS011;6268;48.188;17.134;2022-12-07T15:24:26;5.05;;;4.72;;
12407;SDS011;6268;48.188;17.134;2022-12-07T15:26:54;5.35;;;4.95;;
12407;SDS011;6268;48.188;17.134;2022-12-07T15:29:23;5.80;;;5.40;;
12407;SDS011;6268;48.188;17.134;2022-12-07T15:31:53;5.88;;;5.38;;
12407;SDS011;6268;48.188;17.134;2022-12-07T15:34:24;4.78;;;4.47;;
12407;SDS011;6268;48.188;17.134;2022-12-07T15:37:03;5.93;;;5.43;;
12407;SDS011;6268;48.188;17.134;2022-12-07T15:39:32;6.63;;;5.90;;